createdAt,value
2022-08-27T00:03:02.906Z,95510.88
2022-08-27T00:08:05.898Z,95519.97
2022-08-27T00:13:07.705Z,95522.75
2022-08-27T00:18:09.530Z,95517.19
2022-08-27T00:23:11.227Z,95522.75
2022-08-27T00:28:13.210Z,95515.66
2022-08-27T00:33:14.815Z,95516.88
2022-08-27T00:38:17.268Z,95520.16
2022-08-27T00:43:27.623Z,95516.16
2022-08-27T00:48:35.233Z,95515.72
2022-08-27T00:53:37.433Z,95517.28
2022-08-27T00:58:45.553Z,95522.69
2022-08-27T01:03:51.053Z,95523.44
2022-08-27T01:08:59.089Z,95523.31
2022-08-27T01:14:02.380Z,95527.16
2022-08-27T01:19:14.510Z,95527.16
2022-08-27T01:24:42.110Z,95528.38
2022-08-27T01:29:47.010Z,95528.38
2022-08-27T01:34:49.226Z,95540.28
2022-08-27T01:39:52.327Z,95545.03
2022-08-27T01:45:11.243Z,95538.72
2022-08-27T01:50:20.525Z,95541.50
2022-08-27T01:55:25.383Z,95538.91
2022-08-27T02:00:32.873Z,95540.91
2022-08-27T02:05:40.490Z,95545.09
2022-08-27T02:10:48.584Z,95549.56
2022-08-27T02:15:50.335Z,95546.47
2022-08-27T02:20:52.254Z,95537.97
2022-08-27T02:25:54.032Z,95537.50
2022-08-27T02:30:55.695Z,95535.53
2022-08-27T02:35:57.512Z,95545.56
2022-08-27T02:40:59.194Z,95546.78
2022-08-27T02:46:01.589Z,95547.06
2022-08-27T02:51:05.218Z,95543.38
2022-08-27T02:56:07.482Z,95543.69
2022-08-27T03:01:11.362Z,95538.75
2022-08-27T03:06:15.503Z,95540.59
2022-08-27T03:11:17.093Z,95534.59
2022-08-27T03:16:19.404Z,95531.34
2022-08-27T03:21:24.732Z,95522.50
2022-08-27T03:26:26.589Z,95524.66
2022-08-27T03:31:29.727Z,95521.25
2022-08-27T03:36:31.839Z,95519.72
2022-08-27T03:41:39.988Z,95525.25
2022-08-27T03:46:55.085Z,95528.97
2022-08-27T03:51:56.686Z,95516.06
2022-08-27T03:56:58.313Z,95522.22
2022-08-27T04:02:01.051Z,95511.44
2022-08-27T04:07:02.856Z,95509.91
2022-08-27T04:12:04.734Z,95504.38
2022-08-27T04:17:07.221Z,95513.44
2022-08-27T04:22:09.224Z,95517.75
2022-08-27T04:27:11.610Z,95519.63
2022-08-27T04:32:14.598Z,95519.16
2022-08-27T04:37:16.684Z,95527.03
2022-08-27T04:42:25.139Z,95525.78
2022-08-27T04:47:26.767Z,95529.31
2022-08-27T04:52:28.477Z,95533.66
2022-08-27T04:57:30.088Z,95531.19
2022-08-27T05:02:31.851Z,95529.97
2022-08-27T05:07:33.499Z,95530.28
2022-08-27T05:12:35.487Z,95536.13
2022-08-27T05:17:37.095Z,95536.75
2022-08-27T05:22:39.590Z,95531.81
2022-08-27T05:27:41.177Z,95526.59
2022-08-27T05:32:43.295Z,95526.09
2022-08-27T05:37:44.941Z,95524.88
2022-08-27T05:42:50.323Z,95526.56
2022-08-27T05:47:53.070Z,95532.25
2022-08-27T05:52:54.695Z,95536.75
2022-08-27T05:57:56.488Z,95538.13
2022-08-27T06:02:58.446Z,95535.38
2022-08-27T06:08:00.959Z,95529.97
2022-08-27T06:13:03.705Z,95533.22
2022-08-27T06:18:05.443Z,95537.50
2022-08-27T06:23:07.478Z,95533.97
2022-08-27T06:28:09.887Z,95529.03
2022-08-27T06:33:11.647Z,95523.03
2022-08-27T06:38:13.226Z,95537.69
2022-08-27T06:43:14.823Z,95539.53
2022-08-27T06:48:17.306Z,95534.91
2022-08-27T06:53:19.085Z,95544.16
2022-08-27T06:58:26.679Z,95556.66
2022-08-27T07:03:28.815Z,95554.34
2022-08-27T07:08:30.664Z,95557.09
2022-08-27T07:13:32.348Z,95577.63
2022-08-27T07:18:34.493Z,95569.28
2022-08-27T07:23:37.877Z,95570.97
2022-08-27T07:28:40.962Z,95576.97
2022-08-27T07:33:46.267Z,95578.69
2022-08-27T07:39:00.114Z,95582.06
2022-08-27T07:44:26.006Z,95590.06
2022-08-27T07:49:29.258Z,95589.28
2022-08-27T07:54:31.299Z,95592.34
2022-08-27T07:59:33.138Z,95579.94
2022-08-27T08:04:35.526Z,95588.13
2022-08-27T08:09:37.570Z,95588.53
2022-08-27T08:14:39.273Z,95587.53
2022-08-27T08:19:41.359Z,95593.66
2022-08-27T08:24:43.822Z,95599.94
2022-08-27T08:29:46.168Z,95599.84
2022-08-27T08:34:48.912Z,95597.53
2022-08-27T08:39:50.567Z,95597.97
2022-08-27T08:44:55.446Z,95602.09
2022-08-27T08:50:08.202Z,95592.59
2022-08-27T08:55:12.957Z,95598.78
2022-08-27T09:00:15.277Z,95602.72
2022-08-27T09:05:17.023Z,95599.50
2022-08-27T09:10:37.969Z,95602.00
2022-08-27T09:15:40.235Z,95596.88
2022-08-27T09:20:46.758Z,95605.44
2022-08-27T09:25:50.042Z,95600.94
2022-08-27T09:30:53.147Z,95606.69
2022-08-27T09:35:55.125Z,95598.91
2022-08-27T09:41:01.021Z,95596.22
2022-08-27T09:46:16.412Z,95580.56
2022-08-27T09:51:23.847Z,95584.69
2022-08-27T09:56:34.619Z,95589.59
2022-08-27T10:01:51.290Z,95587.38
2022-08-27T10:06:53.039Z,95582.38
2022-08-27T10:12:03.696Z,95586.22
2022-08-27T10:17:20.607Z,95592.53
2022-08-27T10:22:39.609Z,95584.97
2022-08-27T10:28:02.719Z,95585.22
2022-08-27T10:33:10.637Z,95584.00
2022-08-27T10:38:23.385Z,95580.25
2022-08-27T10:43:45.218Z,95586.22
2022-08-27T10:49:03.340Z,95589.38
2022-08-27T10:54:10.446Z,95590.13
2022-08-27T10:59:38.792Z,95580.41
2022-08-27T11:05:03.733Z,95582.50
2022-08-27T11:10:13.845Z,95581.81
2022-08-27T11:15:19.475Z,95589.25
2022-08-27T11:20:27.280Z,95589.72
2022-08-27T11:26:04.524Z,95581.56
2022-08-27T11:31:24.567Z,95591.09
2022-08-27T11:36:54.720Z,95598.41
2022-08-27T11:42:02.618Z,95579.56
2022-08-27T11:47:19.991Z,95595.16
2022-08-27T11:52:23.993Z,95605.63
2022-08-27T11:57:32.658Z,95603.69
2022-08-27T12:02:34.262Z,95620.94
2022-08-27T12:07:39.938Z,95618.03
2022-08-27T12:13:09.598Z,95613.88
2022-08-27T12:18:37.106Z,95613.66
2022-08-27T12:24:06.802Z,95612.84
2022-08-27T12:29:24.722Z,95606.75
2022-08-27T12:34:32.465Z,95600.50
2022-08-27T12:39:39.035Z,95588.28
2022-08-27T12:44:41.431Z,95577.94
2022-08-27T12:49:57.214Z,95580.22
2022-08-27T12:55:31.093Z,95574.47
2022-08-27T13:00:59.018Z,95574.78
2022-08-27T13:06:01.967Z,95576.00
2022-08-27T13:11:29.104Z,95577.66
2022-08-27T13:16:31.973Z,95579.50
2022-08-27T13:21:34.224Z,95568.66
2022-08-27T13:26:38.993Z,95570.47
2022-08-27T13:31:41.816Z,95565.22
2022-08-27T13:36:55.972Z,95570.88
2022-08-27T13:42:04.341Z,95571.47
2022-08-27T13:47:17.015Z,95561.09
2022-08-27T13:52:27.058Z,95551.31
2022-08-27T13:57:31.735Z,95546.28
2022-08-27T14:02:34.504Z,95543.34
2022-08-27T14:07:42.126Z,95542.84
2022-08-27T14:12:46.931Z,95552.28
2022-08-27T14:17:49.201Z,95557.38
2022-08-27T14:22:50.897Z,95542.03
2022-08-27T14:27:54.860Z,95554.53
2022-08-27T14:32:58.582Z,95553.84
2022-08-27T14:38:08.442Z,95545.75
2022-08-27T14:43:10.182Z,95541.22
2022-08-27T14:48:21.655Z,95541.22
2022-08-27T14:53:30.846Z,95545.38
2022-08-27T14:58:32.553Z,95544.41
2022-08-27T15:03:37.728Z,95545.75
2022-08-27T15:08:39.551Z,95548.81
2022-08-27T15:13:45.319Z,95544.59
2022-08-27T15:18:59.324Z,95541.91
2022-08-27T15:24:13.440Z,95538.50
2022-08-27T15:29:16.687Z,95540.81
2022-08-27T15:34:19.155Z,95556.09
2022-08-27T15:39:21.055Z,95563.41
2022-08-27T15:44:22.882Z,95557.00
2022-08-27T15:49:24.493Z,95548.84
2022-08-27T15:54:26.268Z,95556.50
2022-08-27T15:59:28.636Z,95547.88
2022-08-27T16:04:30.434Z,95540.38
2022-08-27T16:09:32.136Z,95548.06
2022-08-27T16:14:34.812Z,95545.56
2022-08-27T16:19:38.095Z,95546.72
2022-08-27T16:24:39.739Z,95556.63
2022-08-27T16:29:42.763Z,95557.25
2022-08-27T16:34:45.007Z,95540.50
2022-08-27T16:39:46.648Z,95552.09
2022-08-27T16:44:48.767Z,95542.34
2022-08-27T16:50:09.616Z,95547.53
2022-08-27T16:55:24.641Z,95563.22
2022-08-27T17:00:26.769Z,95564.63
2022-08-27T17:05:34.309Z,95564.16
2022-08-27T17:10:45.797Z,95569.72
2022-08-27T17:15:52.133Z,95568.38
2022-08-27T17:20:55.994Z,95573.84
2022-08-27T17:25:57.794Z,95577.75
2022-08-27T17:31:01.169Z,95574.72
2022-08-27T17:36:03.324Z,95575.97
2022-08-27T17:41:25.658Z,95572.44
2022-08-27T17:46:28.261Z,95581.25
2022-08-27T17:51:30.066Z,95583.56
2022-08-27T17:56:32.226Z,95589.75
2022-08-27T18:01:34.111Z,95591.59
2022-08-27T18:06:35.839Z,95604.84
2022-08-27T18:11:39.530Z,95619.69
2022-08-27T18:16:41.376Z,95623.34
2022-08-27T18:21:46.579Z,95633.09
2022-08-27T18:26:49.089Z,95634.00
2022-08-27T18:31:50.876Z,95625.97
2022-08-27T18:36:52.493Z,95626.28
2022-08-27T18:41:54.911Z,95637.41
2022-08-27T18:46:56.555Z,95628.94
2022-08-27T18:51:59.437Z,95640.34
2022-08-27T18:57:01.249Z,95645.44
2022-08-27T19:02:03.051Z,95654.91
2022-08-27T19:07:06.413Z,95668.31
2022-08-27T19:12:08.493Z,95669.88
2022-08-27T19:17:21.828Z,95665.38
2022-08-27T19:22:23.588Z,95670.34
2022-08-27T19:27:27.810Z,95678.22
2022-08-27T19:32:30.241Z,95687.47
2022-08-27T19:37:35.879Z,95687.31
2022-08-27T19:42:37.822Z,95692.13
2022-08-27T19:47:39.633Z,95685.31
2022-08-27T19:52:41.859Z,95682.84
2022-08-27T19:57:44.644Z,95686.25
2022-08-27T20:02:46.736Z,95682.38
2022-08-27T20:07:53.079Z,95678.38
2022-08-27T20:12:54.891Z,95677.16
2022-08-27T20:17:59.222Z,95685.78
2022-08-27T20:23:03.898Z,95691.19
2022-08-27T20:28:37.362Z,95682.53
2022-08-27T20:33:30.463Z,95673.91
2022-08-27T20:38:32.593Z,95666.50
2022-08-27T20:43:36.012Z,95670.50
2022-08-27T20:48:37.711Z,95674.53
2022-08-27T20:53:39.427Z,95675.91
2022-08-27T20:58:59.837Z,95676.22
2022-08-27T21:04:01.618Z,95672.22
2022-08-27T21:09:03.513Z,95668.50
2022-08-27T21:14:05.197Z,95667.09
2022-08-27T21:19:07.982Z,95670.97
2022-08-27T21:24:09.621Z,95675.59
2022-08-27T21:29:11.737Z,95678.66
2022-08-27T21:34:13.773Z,95676.06
2022-08-27T21:39:15.442Z,95681.63
2022-08-27T21:44:17.209Z,95671.75
2022-08-27T21:49:19.318Z,95669.09
2022-08-27T21:54:20.983Z,95672.47
2022-08-27T21:59:25.129Z,95680.94
2022-08-27T22:04:27.478Z,95682.63
2022-08-27T22:09:33.112Z,95681.88
2022-08-27T22:14:36.051Z,95683.56
2022-08-27T22:19:37.775Z,95693.91
2022-08-27T22:24:39.563Z,95686.94
2022-08-27T22:29:41.179Z,95688.47
2022-08-27T22:34:42.923Z,95696.63
2022-08-27T22:39:44.556Z,95699.53
2022-08-27T22:44:46.559Z,95704.00
2022-08-27T22:49:48.207Z,95712.50
2022-08-27T22:54:54.876Z,95706.28
2022-08-27T22:59:58.674Z,95699.97
2022-08-27T23:05:04.671Z,95706.25
2022-08-27T23:10:10.190Z,95707.34
2022-08-27T23:15:12.958Z,95699.81
2022-08-27T23:20:15.566Z,95687.91
2022-08-27T23:25:37.261Z,95687.03
2022-08-27T23:30:43.746Z,95686.56
2022-08-27T23:35:48.223Z,95690.41
2022-08-27T23:40:50.947Z,95690.41
2022-08-27T23:45:52.549Z,95685.34
2022-08-27T23:50:54.427Z,95685.34
2022-08-27T23:55:56.161Z,95683.16
